F/V Le Natif 2 — FKVW — position and weather

sailwx.info

Track history (hours):
 
Tides and Currents Weather Stations Pressure Air Temp Water Temp Dewpoint Dewpoint Depression Visibility Wind Speed Wind Dir Waves Ship Positions

F/V Le Natif 2

Last reported at 2016-Feb-12 05:13 UTC. Time now 2016-Feb-14 07:59 UTC.
Position N 46°42' W 001°57'.

Length 16 m.

Type: Fishing. MMSI: 228131600.

Date/timePositionNaut miles runAvg speedWind from/ knotsBaromVisibWave heightAir tempDewpointWater temp
2016-Feb-12 05:13N 46°42' W 001°57'0 0.1
2016-Feb-12 04:33N 46°42' W 001°56'5 4.8
2016-Feb-12 03:33N 46°38' W 002°01'10 9.7
2016-Feb-12 02:33N 46°30' W 002°09'13 0.4
2016-Feb-10 17:18N 46°18' W 002°12'7 8.4
2016-Feb-10 16:26N 46°25' W 002°08'7 8.2
2016-Feb-10 15:33N 46°31' W 002°04'8 8.2
2016-Feb-10 14:33N 46°39' W 001°59'  
2016-Feb-05 07:32N 46°42' W 001°57'0 0.0
2016-Feb-05 05:14N 46°42' W 001°57'0 0.0
2016-Feb-05 04:31N 46°42' W 001°57'0 0.1
2016-Feb-05 03:33N 46°42' W 001°56'7 6.9
2016-Feb-05 02:33N 46°37' W 002°04'9 8.9
2016-Feb-05 01:33N 46°31' W 002°14'6 0.2
2016-Feb-03 15:25N 46°26' W 002°18'7 7.8
2016-Feb-03 14:34N 46°31' W 002°12'8 7.6
2016-Feb-03 13:34N 46°36' W 002°04'7 7.4
2016-Feb-03 12:34N 46°42' W 001°57'0 0.3
2016-Feb-03 11:34N 46°42' W 001°56'8 7.9
2016-Feb-03 10:34N 46°36' W 002°04'8 7.9
2016-Feb-03 09:34N 46°30' W 002°12'4 0.2
2016-Feb-02 13:22N 46°33' W 002°14'6 7.9
2016-Feb-02 12:33N 46°37' W 002°07'8 7.8
2016-Feb-02 11:33N 46°41' W 001°57'1 0.6
2016-Feb-02 10:33N 46°42' W 001°56'5 4.7
2016-Feb-02 09:34N 46°39' W 002°02'9 9.1
2016-Feb-02 08:33N 46°32' W 002°11'10 9.2
2016-Feb-02 07:25N 46°26' W 002°23'  
Track history (hours):
 
Tides and Currents Weather Stations Pressure Air Temp Water Temp Dewpoint Dewpoint Depression Visibility Wind Speed Wind Dir Waves Ship Positions

F/V Le Natif 2

Last reported at 2016-Feb-12 05:13 UTC. Time now 2016-Feb-14 07:59 UTC.
Position N 46°42' W 001°57'.

Length 16 m.

Type: Fishing. MMSI: 228131600.

Date/timePositionNaut miles runAvg speedWind from/ knotsBaromVisibWave heightAir tempDewpointWater temp
2016-Feb-12 05:13N 46°42' W 001°57'0 0.1
2016-Feb-12 04:33N 46°42' W 001°56'5 4.8
2016-Feb-12 03:33N 46°38' W 002°01'10 9.7
2016-Feb-12 02:33N 46°30' W 002°09'13 0.4
2016-Feb-10 17:18N 46°18' W 002°12'7 8.4
2016-Feb-10 16:26N 46°25' W 002°08'7 8.2
2016-Feb-10 15:33N 46°31' W 002°04'8 8.2
2016-Feb-10 14:33N 46°39' W 001°59'  
2016-Feb-05 07:32N 46°42' W 001°57'0 0.0
2016-Feb-05 05:14N 46°42' W 001°57'0 0.0
2016-Feb-05 04:31N 46°42' W 001°57'0 0.1
2016-Feb-05 03:33N 46°42' W 001°56'7 6.9
2016-Feb-05 02:33N 46°37' W 002°04'9 8.9
2016-Feb-05 01:33N 46°31' W 002°14'6 0.2
2016-Feb-03 15:25N 46°26' W 002°18'7 7.8
2016-Feb-03 14:34N 46°31' W 002°12'8 7.6
2016-Feb-03 13:34N 46°36' W 002°04'7 7.4
2016-Feb-03 12:34N 46°42' W 001°57'0 0.3
2016-Feb-03 11:34N 46°42' W 001°56'8 7.9
2016-Feb-03 10:34N 46°36' W 002°04'8 7.9
2016-Feb-03 09:34N 46°30' W 002°12'4 0.2
2016-Feb-02 13:22N 46°33' W 002°14'6 7.9
2016-Feb-02 12:33N 46°37' W 002°07'8 7.8
2016-Feb-02 11:33N 46°41' W 001°57'1 0.6
2016-Feb-02 10:33N 46°42' W 001°56'5 4.7
2016-Feb-02 09:34N 46°39' W 002°02'9 9.1
2016-Feb-02 08:33N 46°32' W 002°11'10 9.2
2016-Feb-02 07:25N 46°26' W 002°23'  

Dump ship's entire track history